sensor_id;sensor_type;location;lat;lon;timestamp;temperature;humidity
64599;SHT31;51008;51.504;11.548;2023-12-07T00:00:49;1.05;99.99
64599;SHT31;51008;51.504;11.548;2023-12-07T00:05:50;1.08;99.99
64599;SHT31;51008;51.504;11.548;2023-12-07T00:10:51;1.10;99.99
64599;SHT31;51008;51.504;11.548;2023-12-07T00:15:52;1.08;99.99
64599;SHT31;51008;51.504;11.548;2023-12-07T00:20:53;1.05;99.99
64599;SHT31;51008;51.504;11.548;2023-12-07T00:25:54;1.07;99.99
64599;SHT31;51008;51.504;11.548;2023-12-07T00:30:56;1.10;99.99
64599;SHT31;51008;51.504;11.548;2023-12-07T00:35:57;1.08;99.99
64599;SHT31;51008;51.504;11.548;2023-12-07T00:40:58;1.08;99.99
64599;SHT31;51008;51.504;11.548;2023-12-07T00:46:00;1.13;99.99
64599;SHT31;51008;51.504;11.548;2023-12-07T00:51:01;1.07;99.99
64599;SHT31;51008;51.504;11.548;2023-12-07T00:56:03;1.08;99.99
64599;SHT31;51008;51.504;11.548;2023-12-07T01:01:04;1.10;99.99
64599;SHT31;51008;51.504;11.548;2023-12-07T01:06:05;1.11;99.99
64599;SHT31;51008;51.504;11.548;2023-12-07T01:11:06;1.10;99.99
64599;SHT31;51008;51.504;11.548;2023-12-07T01:16:07;1.11;99.99
64599;SHT31;51008;51.504;11.548;2023-12-07T01:21:08;1.10;99.99
64599;SHT31;51008;51.504;11.548;2023-12-07T01:26:09;1.11;99.99
64599;SHT31;51008;51.504;11.548;2023-12-07T01:31:10;1.14;99.99
64599;SHT31;51008;51.504;11.548;2023-12-07T01:36:11;1.13;99.99
64599;SHT31;51008;51.504;11.548;2023-12-07T01:41:13;1.17;99.99
64599;SHT31;51008;51.504;11.548;2023-12-07T01:46:15;1.16;99.99
64599;SHT31;51008;51.504;11.548;2023-12-07T01:51:18;1.18;99.99
64599;SHT31;51008;51.504;11.548;2023-12-07T01:56:21;1.21;99.99
64599;SHT31;51008;51.504;11.548;2023-12-07T02:01:24;1.20;99.99
64599;SHT31;51008;51.504;11.548;2023-12-07T02:06:25;1.17;99.99
64599;SHT31;51008;51.504;11.548;2023-12-07T02:11:27;1.16;99.99
64599;SHT31;51008;51.504;11.548;2023-12-07T02:16:39;1.16;99.99
64599;SHT31;51008;51.504;11.548;2023-12-07T02:21:47;1.17;99.99
64599;SHT31;51008;51.504;11.548;2023-12-07T02:26:51;1.20;99.99
64599;SHT31;51008;51.504;11.548;2023-12-07T02:31:52;1.21;99.99
64599;SHT31;51008;51.504;11.548;2023-12-07T02:36:57;1.23;99.99
64599;SHT31;51008;51.504;11.548;2023-12-07T02:42:00;1.20;99.99
64599;SHT31;51008;51.504;11.548;2023-12-07T02:47:01;1.23;99.99
64599;SHT31;51008;51.504;11.548;2023-12-07T02:52:02;1.24;99.99
64599;SHT31;51008;51.504;11.548;2023-12-07T02:57:04;1.28;99.99
64599;SHT31;51008;51.504;11.548;2023-12-07T03:02:05;1.28;99.99
64599;SHT31;51008;51.504;11.548;2023-12-07T03:07:06;1.30;99.99
64599;SHT31;51008;51.504;11.548;2023-12-07T03:12:07;1.30;99.99
64599;SHT31;51008;51.504;11.548;2023-12-07T03:17:08;1.26;99.99
64599;SHT31;51008;51.504;11.548;2023-12-07T03:22:08;1.26;99.99
64599;SHT31;51008;51.504;11.548;2023-12-07T03:27:10;1.27;99.99
64599;SHT31;51008;51.504;11.548;2023-12-07T03:32:11;1.28;99.99
64599;SHT31;51008;51.504;11.548;2023-12-07T03:37:12;1.27;99.99
64599;SHT31;51008;51.504;11.548;2023-12-07T03:42:13;1.26;99.99
64599;SHT31;51008;51.504;11.548;2023-12-07T03:47:14;1.26;99.99
64599;SHT31;51008;51.504;11.548;2023-12-07T03:52:34;1.26;99.99
64599;SHT31;51008;51.504;11.548;2023-12-07T03:57:35;1.26;99.99
64599;SHT31;51008;51.504;11.548;2023-12-07T04:02:36;1.23;99.99
64599;SHT31;51008;51.504;11.548;2023-12-07T04:07:37;1.23;99.99
64599;SHT31;51008;51.504;11.548;2023-12-07T04:12:38;1.23;99.99
64599;SHT31;51008;51.504;11.548;2023-12-07T04:17:39;1.21;99.99
64599;SHT31;51008;51.504;11.548;2023-12-07T04:22:41;1.20;99.99
64599;SHT31;51008;51.504;11.548;2023-12-07T04:27:42;1.21;99.99
64599;SHT31;51008;51.504;11.548;2023-12-07T04:32:43;1.24;99.99
64599;SHT31;51008;51.504;11.548;2023-12-07T04:37:44;1.20;99.99
64599;SHT31;51008;51.504;11.548;2023-12-07T04:42:45;1.23;99.99
64599;SHT31;51008;51.504;11.548;2023-12-07T04:48:05;1.21;99.99
64599;SHT31;51008;51.504;11.548;2023-12-07T04:53:06;1.24;99.99
64599;SHT31;51008;51.504;11.548;2023-12-07T04:58:07;1.21;99.99
64599;SHT31;51008;51.504;11.548;2023-12-07T05:03:08;1.23;99.99
64599;SHT31;51008;51.504;11.548;2023-12-07T05:08:10;1.21;99.99
64599;SHT31;51008;51.504;11.548;2023-12-07T05:13:11;1.20;99.99
64599;SHT31;51008;51.504;11.548;2023-12-07T05:18:12;1.23;99.99
64599;SHT31;51008;51.504;11.548;2023-12-07T05:23:13;1.24;99.99
64599;SHT31;51008;51.504;11.548;2023-12-07T05:28:14;1.20;99.99
64599;SHT31;51008;51.504;11.548;2023-12-07T05:33:15;1.20;99.99
64599;SHT31;51008;51.504;11.548;2023-12-07T05:38:16;1.20;99.99
64599;SHT31;51008;51.504;11.548;2023-12-07T05:43:17;1.21;99.99
64599;SHT31;51008;51.504;11.548;2023-12-07T05:48:18;1.24;99.99
64599;SHT31;51008;51.504;11.548;2023-12-07T05:53:19;1.24;99.99
64599;SHT31;51008;51.504;11.548;2023-12-07T05:58:20;1.27;99.99
64599;SHT31;51008;51.504;11.548;2023-12-07T06:03:21;1.26;99.99
64599;SHT31;51008;51.504;11.548;2023-12-07T06:08:22;1.26;99.99
64599;SHT31;51008;51.504;11.548;2023-12-07T06:13:24;1.26;99.99
64599;SHT31;51008;51.504;11.548;2023-12-07T06:18:27;1.28;99.99
64599;SHT31;51008;51.504;11.548;2023-12-07T06:23:32;1.28;99.99
64599;SHT31;51008;51.504;11.548;2023-12-07T06:28:33;1.28;99.99
64599;SHT31;51008;51.504;11.548;2023-12-07T06:33:36;1.30;99.99
64599;SHT31;51008;51.504;11.548;2023-12-07T06:38:38;1.28;99.99
64599;SHT31;51008;51.504;11.548;2023-12-07T06:43:39;1.28;99.99
64599;SHT31;51008;51.504;11.548;2023-12-07T06:48:40;1.28;99.99
64599;SHT31;51008;51.504;11.548;2023-12-07T06:53:41;1.27;99.99
64599;SHT31;51008;51.504;11.548;2023-12-07T06:58:42;1.26;99.99
64599;SHT31;51008;51.504;11.548;2023-12-07T07:03:43;1.26;99.99
64599;SHT31;51008;51.504;11.548;2023-12-07T07:08:44;1.27;99.99
64599;SHT31;51008;51.504;11.548;2023-12-07T07:13:45;1.28;99.99
64599;SHT31;51008;51.504;11.548;2023-12-07T07:18:46;1.27;99.99
64599;SHT31;51008;51.504;11.548;2023-12-07T07:23:48;1.30;99.99
64599;SHT31;51008;51.504;11.548;2023-12-07T07:28:49;1.32;99.99
64599;SHT31;51008;51.504;11.548;2023-12-07T07:33:50;1.35;99.99
64599;SHT31;51008;51.504;11.548;2023-12-07T07:38:50;1.38;99.99
64599;SHT31;51008;51.504;11.548;2023-12-07T07:43:51;1.37;99.99
64599;SHT31;51008;51.504;11.548;2023-12-07T07:48:52;1.42;99.99
64599;SHT31;51008;51.504;11.548;2023-12-07T07:53:53;1.38;99.99
64599;SHT31;51008;51.504;11.548;2023-12-07T07:58:54;1.38;99.99
64599;SHT31;51008;51.504;11.548;2023-12-07T08:03:55;1.39;99.99
64599;SHT31;51008;51.504;11.548;2023-12-07T08:08:56;1.42;99.99
64599;SHT31;51008;51.504;11.548;2023-12-07T08:13:58;1.42;99.99
64599;SHT31;51008;51.504;11.548;2023-12-07T08:18:59;1.46;99.99
64599;SHT31;51008;51.504;11.548;2023-12-07T08:23:59;1.48;99.96
64599;SHT31;51008;51.504;11.548;2023-12-07T08:29:00;1.59;99.69
64599;SHT31;51008;51.504;11.548;2023-12-07T08:34:01;1.62;99.48
64599;SHT31;51008;51.504;11.548;2023-12-07T08:39:02;1.62;99.45
64599;SHT31;51008;51.504;11.548;2023-12-07T08:44:04;1.69;99.30
64599;SHT31;51008;51.504;11.548;2023-12-07T08:49:05;1.69;99.36
64599;SHT31;51008;51.504;11.548;2023-12-07T08:54:06;1.72;99.17
64599;SHT31;51008;51.504;11.548;2023-12-07T08:59:07;1.69;99.21
64599;SHT31;51008;51.504;11.548;2023-12-07T09:04:08;1.74;99.13
64599;SHT31;51008;51.504;11.548;2023-12-07T09:09:09;1.76;99.04
64599;SHT31;51008;51.504;11.548;2023-12-07T09:14:10;1.79;99.08
64599;SHT31;51008;51.504;11.548;2023-12-07T09:19:14;1.79;99.05
64599;SHT31;51008;51.504;11.548;2023-12-07T09:24:15;1.80;99.03
64599;SHT31;51008;51.504;11.548;2023-12-07T09:29:16;1.79;99.00
64599;SHT31;51008;51.504;11.548;2023-12-07T09:34:17;1.82;98.78
64599;SHT31;51008;51.504;11.548;2023-12-07T09:39:19;1.90;98.87
64599;SHT31;51008;51.504;11.548;2023-12-07T09:44:20;2.03;98.63
64599;SHT31;51008;51.504;11.548;2023-12-07T09:49:21;2.08;98.06
64599;SHT31;51008;51.504;11.548;2023-12-07T09:54:23;2.13;97.78
64599;SHT31;51008;51.504;11.548;2023-12-07T09:59:25;2.17;97.92
64599;SHT31;51008;51.504;11.548;2023-12-07T10:04:26;2.18;97.48
64599;SHT31;51008;51.504;11.548;2023-12-07T10:09:27;2.22;97.16
64599;SHT31;51008;51.504;11.548;2023-12-07T10:14:28;2.28;96.92
64599;SHT31;51008;51.504;11.548;2023-12-07T10:19:29;2.39;96.89
64599;SHT31;51008;51.504;11.548;2023-12-07T10:24:30;2.52;96.65
64599;SHT31;51008;51.504;11.548;2023-12-07T10:29:35;2.59;96.28
64599;SHT31;51008;51.504;11.548;2023-12-07T10:34:36;2.64;95.98
64599;SHT31;51008;51.504;11.548;2023-12-07T10:39:37;2.67;95.72
64599;SHT31;51008;51.504;11.548;2023-12-07T10:44:42;2.69;95.63
64599;SHT31;51008;51.504;11.548;2023-12-07T10:49:43;2.73;96.02
64599;SHT31;51008;51.504;11.548;2023-12-07T10:55:02;2.63;95.77
64599;SHT31;51008;51.504;11.548;2023-12-07T11:00:06;2.66;96.12
64599;SHT31;51008;51.504;11.548;2023-12-07T11:05:08;2.72;96.20
64599;SHT31;51008;51.504;11.548;2023-12-07T11:10:20;2.79;95.82
64599;SHT31;51008;51.504;11.548;2023-12-07T11:15:23;2.97;95.30
64599;SHT31;51008;51.504;11.548;2023-12-07T11:20:44;3.19;95.05
64599;SHT31;51008;51.504;11.548;2023-12-07T11:25:46;3.36;94.90
64599;SHT31;51008;51.504;11.548;2023-12-07T11:30:47;3.50;94.26
64599;SHT31;51008;51.504;11.548;2023-12-07T11:36:08;3.58;93.12
64599;SHT31;51008;51.504;11.548;2023-12-07T11:41:09;3.59;92.61
64599;SHT31;51008;51.504;11.548;2023-12-07T11:46:11;3.52;92.62
64599;SHT31;51008;51.504;11.548;2023-12-07T11:51:12;3.38;93.13
64599;SHT31;51008;51.504;11.548;2023-12-07T11:56:13;3.42;93.05
64599;SHT31;51008;51.504;11.548;2023-12-07T12:01:15;3.49;92.72
64599;SHT31;51008;51.504;11.548;2023-12-07T12:06:17;3.62;92.49
64599;SHT31;51008;51.504;11.548;2023-12-07T12:11:18;3.85;91.56
64599;SHT31;51008;51.504;11.548;2023-12-07T12:16:19;4.01;90.20
64599;SHT31;51008;51.504;11.548;2023-12-07T12:21:20;4.13;87.98
64599;SHT31;51008;51.504;11.548;2023-12-07T12:26:21;4.30;88.71
64599;SHT31;51008;51.504;11.548;2023-12-07T12:31:22;4.43;87.53
64599;SHT31;51008;51.504;11.548;2023-12-07T12:36:23;4.54;86.64
64599;SHT31;51008;51.504;11.548;2023-12-07T12:41:24;4.42;85.19
64599;SHT31;51008;51.504;11.548;2023-12-07T12:46:25;4.40;85.92
64599;SHT31;51008;51.504;11.548;2023-12-07T12:51:45;4.09;87.23
64599;SHT31;51008;51.504;11.548;2023-12-07T12:56:49;3.81;88.77
64599;SHT31;51008;51.504;11.548;2023-12-07T13:02:09;3.71;89.35
64599;SHT31;51008;51.504;11.548;2023-12-07T13:07:12;3.53;89.02
64599;SHT31;51008;51.504;11.548;2023-12-07T13:12:13;3.29;88.71
64599;SHT31;51008;51.504;11.548;2023-12-07T13:17:14;3.24;88.27
64599;SHT31;51008;51.504;11.548;2023-12-07T13:22:15;3.16;88.46
64599;SHT31;51008;51.504;11.548;2023-12-07T13:27:16;3.14;88.81
64599;SHT31;51008;51.504;11.548;2023-12-07T13:32:17;3.04;88.82
64599;SHT31;51008;51.504;11.548;2023-12-07T13:37:18;2.88;89.05
64599;SHT31;51008;51.504;11.548;2023-12-07T13:42:19;2.70;89.18
64599;SHT31;51008;51.504;11.548;2023-12-07T13:47:20;2.54;89.61
64599;SHT31;51008;51.504;11.548;2023-12-07T13:52:21;2.42;90.73
64599;SHT31;51008;51.504;11.548;2023-12-07T13:57:23;2.29;91.20
64599;SHT31;51008;51.504;11.548;2023-12-07T14:02:24;2.22;92.09
64599;SHT31;51008;51.504;11.548;2023-12-07T14:07:25;2.11;92.87
64599;SHT31;51008;51.504;11.548;2023-12-07T14:12:26;2.01;93.20
64599;SHT31;51008;51.504;11.548;2023-12-07T14:17:27;1.87;93.45
64599;SHT31;51008;51.504;11.548;2023-12-07T14:22:29;1.74;93.64
64599;SHT31;51008;51.504;11.548;2023-12-07T14:27:33;1.63;94.02
64599;SHT31;51008;51.504;11.548;2023-12-07T14:32:34;1.66;94.88
64599;SHT31;51008;51.504;11.548;2023-12-07T14:37:35;1.63;95.12
64599;SHT31;51008;51.504;11.548;2023-12-07T14:42:36;1.59;95.52
64599;SHT31;51008;51.504;11.548;2023-12-07T14:47:37;1.63;95.64
64599;SHT31;51008;51.504;11.548;2023-12-07T14:52:38;1.59;95.75
64599;SHT31;51008;51.504;11.548;2023-12-07T14:57:39;1.54;95.80
64599;SHT31;51008;51.504;11.548;2023-12-07T15:02:40;1.42;95.83
64599;SHT31;51008;51.504;11.548;2023-12-07T15:07:41;1.34;95.97
64599;SHT31;51008;51.504;11.548;2023-12-07T15:12:42;1.27;96.27
64599;SHT31;51008;51.504;11.548;2023-12-07T15:17:43;1.20;96.63
64599;SHT31;51008;51.504;11.548;2023-12-07T15:22:44;1.21;96.71
64599;SHT31;51008;51.504;11.548;2023-12-07T15:27:45;1.21;96.68
64599;SHT31;51008;51.504;11.548;2023-12-07T15:32:46;1.21;96.82
64599;SHT31;51008;51.504;11.548;2023-12-07T15:37:47;1.26;96.81
64599;SHT31;51008;51.504;11.548;2023-12-07T15:42:48;1.27;96.97
64599;SHT31;51008;51.504;11.548;2023-12-07T15:47:49;1.23;96.90
64599;SHT31;51008;51.504;11.548;2023-12-07T15:52:50;1.23;96.78
64599;SHT31;51008;51.504;11.548;2023-12-07T15:57:52;1.23;96.84
64599;SHT31;51008;51.504;11.548;2023-12-07T16:02:53;1.17;96.72
64599;SHT31;51008;51.504;11.548;2023-12-07T16:07:54;1.14;96.77
64599;SHT31;51008;51.504;11.548;2023-12-07T16:12:55;1.13;96.41
64599;SHT31;51008;51.504;11.548;2023-12-07T16:17:56;1.10;96.51
64599;SHT31;51008;51.504;11.548;2023-12-07T16:22:57;1.04;96.50
64599;SHT31;51008;51.504;11.548;2023-12-07T16:27:58;0.99;96.61
64599;SHT31;51008;51.504;11.548;2023-12-07T16:32:59;0.92;96.87
64599;SHT31;51008;51.504;11.548;2023-12-07T16:38:00;0.80;96.88
64599;SHT31;51008;51.504;11.548;2023-12-07T16:43:01;0.77;97.03
64599;SHT31;51008;51.504;11.548;2023-12-07T16:48:02;0.73;97.06
64599;SHT31;51008;51.504;11.548;2023-12-07T16:53:03;0.73;97.20
64599;SHT31;51008;51.504;11.548;2023-12-07T16:58:04;0.68;97.13
64599;SHT31;51008;51.504;11.548;2023-12-07T17:03:05;0.70;97.06
64599;SHT31;51008;51.504;11.548;2023-12-07T17:08:07;0.70;97.18
64599;SHT31;51008;51.504;11.548;2023-12-07T17:13:08;0.64;97.13
64599;SHT31;51008;51.504;11.548;2023-12-07T17:18:09;0.55;97.25
64599;SHT31;51008;51.504;11.548;2023-12-07T17:23:10;0.44;97.18
64599;SHT31;51008;51.504;11.548;2023-12-07T17:28:11;0.34;97.36
64599;SHT31;51008;51.504;11.548;2023-12-07T17:33:12;0.37;96.18
64599;SHT31;51008;51.504;11.548;2023-12-07T17:38:14;0.31;96.80
64599;SHT31;51008;51.504;11.548;2023-12-07T17:43:14;0.23;96.74
64599;SHT31;51008;51.504;11.548;2023-12-07T17:48:16;0.14;96.74
64599;SHT31;51008;51.504;11.548;2023-12-07T17:53:17;0.02;96.71
64599;SHT31;51008;51.504;11.548;2023-12-07T17:58:18;-0.07;96.98
64599;SHT31;51008;51.504;11.548;2023-12-07T18:03:19;-0.15;97.15
64599;SHT31;51008;51.504;11.548;2023-12-07T18:08:20;-0.13;97.33
64599;SHT31;51008;51.504;11.548;2023-12-07T18:13:21;-0.19;97.15
64599;SHT31;51008;51.504;11.548;2023-12-07T18:18:22;-0.33;97.10
64599;SHT31;51008;51.504;11.548;2023-12-07T18:23:23;-0.45;97.12
64599;SHT31;51008;51.504;11.548;2023-12-07T18:28:24;-0.55;97.22
64599;SHT31;51008;51.504;11.548;2023-12-07T18:33:25;-0.62;97.36
64599;SHT31;51008;51.504;11.548;2023-12-07T18:38:26;-0.70;97.80
64599;SHT31;51008;51.504;11.548;2023-12-07T18:43:27;-0.72;97.73
64599;SHT31;51008;51.504;11.548;2023-12-07T18:48:28;-0.81;97.77
64599;SHT31;51008;51.504;11.548;2023-12-07T18:53:29;-0.87;97.68
64599;SHT31;51008;51.504;11.548;2023-12-07T18:58:30;-0.98;97.73
64599;SHT31;51008;51.504;11.548;2023-12-07T19:03:31;-1.02;97.81
64599;SHT31;51008;51.504;11.548;2023-12-07T19:08:32;-1.05;98.01
64599;SHT31;51008;51.504;11.548;2023-12-07T19:13:33;-1.09;98.05
64599;SHT31;51008;51.504;11.548;2023-12-07T19:18:53;-1.13;98.37
64599;SHT31;51008;51.504;11.548;2023-12-07T19:24:00;-1.21;98.98
64599;SHT31;51008;51.504;11.548;2023-12-07T19:29:20;-1.11;99.65
64599;SHT31;51008;51.504;11.548;2023-12-07T19:34:26;-0.55;99.13
64599;SHT31;51008;51.504;11.548;2023-12-07T19:39:46;-0.22;98.03
64599;SHT31;51008;51.504;11.548;2023-12-07T19:44:54;0.02;96.98
64599;SHT31;51008;51.504;11.548;2023-12-07T19:49:55;0.14;96.33
64599;SHT31;51008;51.504;11.548;2023-12-07T19:54:56;0.10;96.16
64599;SHT31;51008;51.504;11.548;2023-12-07T20:00:16;0.15;95.79
64599;SHT31;51008;51.504;11.548;2023-12-07T20:05:23;0.18;94.82
64599;SHT31;51008;51.504;11.548;2023-12-07T20:10:24;0.17;94.65
64599;SHT31;51008;51.504;11.548;2023-12-07T20:15:25;0.18;94.28
64599;SHT31;51008;51.504;11.548;2023-12-07T20:20:26;0.18;93.94
64599;SHT31;51008;51.504;11.548;2023-12-07T20:25:27;0.07;94.39
64599;SHT31;51008;51.504;11.548;2023-12-07T20:30:28;-0.03;94.51
64599;SHT31;51008;51.504;11.548;2023-12-07T20:35:29;-0.07;94.25
64599;SHT31;51008;51.504;11.548;2023-12-07T20:40:30;-0.11;94.34
64599;SHT31;51008;51.504;11.548;2023-12-07T20:45:31;-0.01;93.47
64599;SHT31;51008;51.504;11.548;2023-12-07T20:50:32;-0.07;93.56
64599;SHT31;51008;51.504;11.548;2023-12-07T20:55:33;-0.01;93.13
64599;SHT31;51008;51.504;11.548;2023-12-07T21:00:34;0.02;92.88
64599;SHT31;51008;51.504;11.548;2023-12-07T21:05:35;0.07;92.64
64599;SHT31;51008;51.504;11.548;2023-12-07T21:10:36;0.02;92.69
64599;SHT31;51008;51.504;11.548;2023-12-07T21:15:38;0.03;92.48
64599;SHT31;51008;51.504;11.548;2023-12-07T21:20:39;-0.05;92.91
64599;SHT31;51008;51.504;11.548;2023-12-07T21:25:40;0.07;92.52
64599;SHT31;51008;51.504;11.548;2023-12-07T21:30:41;0.03;92.37
64599;SHT31;51008;51.504;11.548;2023-12-07T21:35:42;-0.13;93.22
64599;SHT31;51008;51.504;11.548;2023-12-07T21:40:43;-0.04;92.50
64599;SHT31;51008;51.504;11.548;2023-12-07T21:45:44;-0.01;92.47
64599;SHT31;51008;51.504;11.548;2023-12-07T21:50:45;-0.07;92.45
64599;SHT31;51008;51.504;11.548;2023-12-07T21:55:46;0.03;91.52
64599;SHT31;51008;51.504;11.548;2023-12-07T22:00:47;-0.08;91.98
64599;SHT31;51008;51.504;11.548;2023-12-07T22:06:08;-0.11;92.01
64599;SHT31;51008;51.504;11.548;2023-12-07T22:11:10;-0.14;91.94
64599;SHT31;51008;51.504;11.548;2023-12-07T22:16:11;-0.28;92.39
64599;SHT31;51008;51.504;11.548;2023-12-07T22:21:12;-0.21;92.29
64599;SHT31;51008;51.504;11.548;2023-12-07T22:26:13;-0.33;92.97
64599;SHT31;51008;51.504;11.548;2023-12-07T22:31:14;-0.39;93.01
64599;SHT31;51008;51.504;11.548;2023-12-07T22:36:15;-0.36;93.08
64599;SHT31;51008;51.504;11.548;2023-12-07T22:41:16;-0.39;93.05
64599;SHT31;51008;51.504;11.548;2023-12-07T22:46:17;-0.45;93.11
64599;SHT31;51008;51.504;11.548;2023-12-07T22:51:18;-0.36;92.97
64599;SHT31;51008;51.504;11.548;2023-12-07T22:56:19;-0.46;93.12
64599;SHT31;51008;51.504;11.548;2023-12-07T23:01:20;-0.49;93.41
64599;SHT31;51008;51.504;11.548;2023-12-07T23:06:21;-0.55;93.68
64599;SHT31;51008;51.504;11.548;2023-12-07T23:11:22;-0.57;93.39
64599;SHT31;51008;51.504;11.548;2023-12-07T23:16:23;-0.65;93.46
64599;SHT31;51008;51.504;11.548;2023-12-07T23:21:24;-0.67;93.33
64599;SHT31;51008;51.504;11.548;2023-12-07T23:26:25;-0.69;93.06
64599;SHT31;51008;51.504;11.548;2023-12-07T23:31:26;-0.62;92.42
64599;SHT31;51008;51.504;11.548;2023-12-07T23:36:27;-0.52;91.83
64599;SHT31;51008;51.504;11.548;2023-12-07T23:41:28;-0.23;90.11
64599;SHT31;51008;51.504;11.548;2023-12-07T23:46:29;-0.26;89.82
64599;SHT31;51008;51.504;11.548;2023-12-07T23:51:30;-0.14;88.16
64599;SHT31;51008;51.504;11.548;2023-12-07T23:56:31;0.07;86.59
